Time;durP1;ratioP1;P1;durP2;ratioP2;P2;SDS_P1;SDS_P2;PMS_P1;PMS_P2;Temp;Humidity;BMP_temperature;BMP_pressure;BME280_temperature;BME280_humidity;BME280_pressure;Samples;Min_cycle;Max_cycle;Signal;HPM_P1;HPM_P2
2023/12/23 00:02:23;;;;;;;;;;;17.20;67.30;;;;;;10302293;28;95797;-48
2023/12/23 00:07:25;;;;;;;;;;;17.20;67.30;;;;;;10300324;28;94366;-47
2023/12/23 00:12:27;;;;;;;;;;;17.20;67.30;;;;;;10300204;28;94493;-47
2023/12/23 00:17:29;;;;;;;;;;;17.10;67.30;;;;;;10289566;28;93579;-50
2023/12/23 00:22:31;;;;;;;;;;;17.10;67.20;;;;;;10311267;28;93545;-49
2023/12/23 00:27:33;;;;;;;;;;;17.10;67.20;;;;;;10316446;28;93434;-49
2023/12/23 00:32:35;;;;;;;;;;;17.00;67.20;;;;;;10299594;28;93878;-49
2023/12/23 00:37:36;;;;;;;;;;;17.00;67.20;;;;;;10312931;28;92603;-49
2023/12/23 00:42:38;;;;;;;;;;;17.00;67.10;;;;;;10299962;28;93578;-49
2023/12/23 00:47:40;;;;;;;;;;;17.00;67.20;;;;;;10298246;28;93449;-49
2023/12/23 00:52:42;;;;;;;;;;;16.90;67.00;;;;;;10310201;28;96274;-48
2023/12/23 00:57:44;;;;;;;;;;;16.90;67.00;;;;;;10313157;28;94486;-49
2023/12/23 01:02:46;;;;;;;;;;;16.90;67.00;;;;;;10312862;28;94721;-47
2023/12/23 01:07:48;;;;;;;;;;;16.90;67.00;;;;;;10321370;28;93795;-46
2023/12/23 01:12:50;;;;;;;;;;;16.90;66.90;;;;;;10316513;28;94790;-48
2023/12/23 01:17:52;;;;;;;;;;;16.90;66.90;;;;;;10313522;28;94248;-49
2023/12/23 01:22:54;;;;;;;;;;;16.90;66.90;;;;;;10307184;28;93358;-46
2023/12/23 01:28:00;;;;;;;;;;;16.90;66.90;;;;;;10293493;28;93733;-44
2023/12/23 01:33:02;;;;;;;;;;;16.90;66.80;;;;;;10301781;28;92721;-49
2023/12/23 01:38:04;;;;;;;;;;;16.90;66.80;;;;;;10301070;28;93411;-44
2023/12/23 01:43:09;;;;;;;;;;;16.90;66.70;;;;;;10292872;28;96912;-45
2023/12/23 01:48:11;;;;;;;;;;;16.80;66.60;;;;;;10300612;28;93431;-47
2023/12/23 01:53:13;;;;;;;;;;;16.80;66.60;;;;;;10306491;28;93489;-47
2023/12/23 01:58:15;;;;;;;;;;;16.80;66.60;;;;;;10330751;28;93535;-47
2023/12/23 02:03:17;;;;;;;;;;;16.80;66.50;;;;;;10788399;22;94311;-45
2023/12/23 02:08:19;;;;;;;;;;;16.80;66.50;;;;;;10270904;28;95212;-45
2023/12/23 02:13:25;;;;;;;;;;;16.70;66.40;;;;;;10284375;28;94504;-43
2023/12/23 02:18:27;;;;;;;;;;;16.70;66.40;;;;;;10262078;28;93708;-45
2023/12/23 02:23:29;;;;;;;;;;;16.70;66.40;;;;;;10266306;28;94459;-46
2023/12/23 02:28:32;;;;;;;;;;;16.70;66.40;;;;;;10265239;28;94482;-45
2023/12/23 02:33:34;;;;;;;;;;;16.70;66.50;;;;;;10269723;28;96855;-42
2023/12/23 02:38:36;;;;;;;;;;;16.70;66.40;;;;;;10286687;28;94414;-44
2023/12/23 02:43:37;;;;;;;;;;;16.70;66.40;;;;;;10275631;28;94422;-48
2023/12/23 02:48:39;;;;;;;;;;;16.60;66.30;;;;;;10258111;28;94854;-42
2023/12/23 02:53:41;;;;;;;;;;;16.60;66.30;;;;;;10260260;28;94500;-45
2023/12/23 02:58:43;;;;;;;;;;;16.60;66.40;;;;;;10268171;28;93861;-44
2023/12/23 03:03:45;;;;;;;;;;;16.60;66.40;;;;;;10268386;28;93515;-49
2023/12/23 03:08:47;;;;;;;;;;;16.60;66.40;;;;;;10269833;28;92400;-44
2023/12/23 03:13:48;;;;;;;;;;;16.50;66.30;;;;;;10275258;28;92761;-46
2023/12/23 03:18:50;;;;;;;;;;;16.60;66.40;;;;;;10279774;28;93525;-46
2023/12/23 03:23:52;;;;;;;;;;;16.50;66.40;;;;;;10260305;28;98009;-48
2023/12/23 03:28:54;;;;;;;;;;;16.50;66.50;;;;;;10267121;28;94363;-49
2023/12/23 03:33:56;;;;;;;;;;;16.50;66.50;;;;;;10252215;28;93471;-49
2023/12/23 03:38:58;;;;;;;;;;;16.50;66.50;;;;;;10265432;28;92612;-45
2023/12/23 03:44:00;;;;;;;;;;;16.50;66.50;;;;;;10264785;28;94425;-44
2023/12/23 03:49:01;;;;;;;;;;;16.50;66.50;;;;;;10271476;28;94923;-43
2023/12/23 03:54:03;;;;;;;;;;;16.50;66.50;;;;;;10257222;28;94429;-44
2023/12/23 03:59:05;;;;;;;;;;;16.40;66.50;;;;;;10266890;28;93652;-43
2023/12/23 04:04:07;;;;;;;;;;;16.40;66.40;;;;;;10252283;28;94597;-43
2023/12/23 04:09:10;;;;;;;;;;;16.40;66.50;;;;;;10254889;28;93493;-43
2023/12/23 04:14:11;;;;;;;;;;;16.40;66.50;;;;;;10264818;28;95869;-43
2023/12/23 04:19:13;;;;;;;;;;;16.40;66.50;;;;;;10257792;28;93529;-43
2023/12/23 04:24:15;;;;;;;;;;;16.40;66.50;;;;;;10251778;28;94032;-46
2023/12/23 04:29:17;;;;;;;;;;;16.30;66.50;;;;;;10247156;28;94437;-48
2023/12/23 04:34:19;;;;;;;;;;;16.40;66.50;;;;;;10261698;28;93428;-43
2023/12/23 04:39:21;;;;;;;;;;;16.40;66.50;;;;;;10274684;28;93592;-44
2023/12/23 04:44:23;;;;;;;;;;;16.30;66.50;;;;;;10261854;28;94111;-43
2023/12/23 04:49:25;;;;;;;;;;;16.30;66.50;;;;;;10277112;28;93739;-44
2023/12/23 04:54:27;;;;;;;;;;;16.30;66.60;;;;;;10268622;28;93143;-43
2023/12/23 04:59:29;;;;;;;;;;;16.40;66.50;;;;;;10283588;28;93464;-43
2023/12/23 05:04:31;;;;;;;;;;;16.40;66.40;;;;;;10282454;28;96014;-47
2023/12/23 05:09:34;;;;;;;;;;;16.40;66.40;;;;;;10273130;28;93836;-47
2023/12/23 05:14:36;;;;;;;;;;;16.40;66.30;;;;;;10265728;28;94424;-47
2023/12/23 05:19:41;;;;;;;;;;;16.40;66.30;;;;;;10279533;28;93395;-48
2023/12/23 05:24:43;;;;;;;;;;;16.40;66.30;;;;;;10271368;28;94013;-44
2023/12/23 05:29:45;;;;;;;;;;;16.40;67.20;;;;;;10267805;28;93495;-47
2023/12/23 05:34:47;;;;;;;;;;;16.30;66.20;;;;;;10280149;28;94499;-46
2023/12/23 05:39:49;;;;;;;;;;;16.40;66.30;;;;;;10280429;28;92866;-46
2023/12/23 05:44:51;;;;;;;;;;;16.30;67.20;;;;;;10267542;28;93510;-43
2023/12/23 05:49:52;;;;;;;;;;;16.40;66.30;;;;;;10281787;28;95131;-46
2023/12/23 05:54:55;;;;;;;;;;;16.60;66.30;;;;;;10248612;28;95793;-47
2023/12/23 05:59:57;;;;;;;;;;;16.70;65.80;;;;;;10257957;28;94127;-49
2023/12/23 06:04:59;;;;;;;;;;;17.00;65.50;;;;;;10251901;28;93359;-47
2023/12/23 06:10:01;;;;;;;;;;;17.10;65.00;;;;;;10283456;28;92651;-47
2023/12/23 06:15:03;;;;;;;;;;;17.20;64.70;;;;;;10251738;28;94470;-45
2023/12/23 06:20:05;;;;;;;;;;;17.20;64.50;;;;;;10258287;28;93236;-44
2023/12/23 06:25:07;;;;;;;;;;;17.20;64.50;;;;;;10255923;28;93649;-45
2023/12/23 06:30:09;;;;;;;;;;;17.20;64.40;;;;;;10257304;28;91909;-43
2023/12/23 06:35:11;;;;;;;;;;;17.20;64.50;;;;;;10268870;28;93593;-43
2023/12/23 06:40:15;;;;;;;;;;;17.20;64.60;;;;;;10285086;28;94530;-46
2023/12/23 06:45:19;;;;;;;;;;;17.20;64.70;;;;;;10258096;28;95859;-45
2023/12/23 06:50:21;;;;;;;;;;;17.10;64.70;;;;;;10257851;28;94442;-44
2023/12/23 06:55:23;;;;;;;;;;;17.10;64.90;;;;;;10262257;28;93789;-44
2023/12/23 07:00:26;;;;;;;;;;;17.10;65.00;;;;;;10270944;28;93424;-45
2023/12/23 07:05:28;;;;;;;;;;;17.00;65.10;;;;;;10256865;28;95704;-46
2023/12/23 07:10:29;;;;;;;;;;;17.00;65.20;;;;;;10261536;28;93688;-45
2023/12/23 07:15:31;;;;;;;;;;;17.00;65.30;;;;;;10246517;28;94017;-43
2023/12/23 07:20:33;;;;;;;;;;;16.90;65.40;;;;;;10263743;28;94190;-45
2023/12/23 07:25:35;;;;;;;;;;;16.90;65.50;;;;;;10238189;28;94460;-43
2023/12/23 07:30:44;;;;;;;;;;;16.90;65.70;;;;;;10277388;28;93935;-42
2023/12/23 07:35:46;;;;;;;;;;;16.90;66.00;;;;;;10256774;28;96148;-47
2023/12/23 07:40:48;;;;;;;;;;;17.00;67.50;;;;;;10275862;28;93527;-43
2023/12/23 07:45:50;;;;;;;;;;;17.20;68.10;;;;;;10278915;28;93453;-44
2023/12/23 07:50:52;;;;;;;;;;;17.50;67.80;;;;;;10277388;28;94806;-46
2023/12/23 07:55:54;;;;;;;;;;;17.90;68.80;;;;;;10284086;28;94580;-44
2023/12/23 08:00:56;;;;;;;;;;;18.20;66.50;;;;;;10267125;28;94420;-44
2023/12/23 08:05:58;;;;;;;;;;;18.30;65.80;;;;;;10257446;28;94567;-46
2023/12/23 08:11:00;;;;;;;;;;;18.30;65.50;;;;;;10260639;28;94409;-44
2023/12/23 08:16:04;;;;;;;;;;;18.20;65.30;;;;;;10272083;28;113702;-44
2023/12/23 08:21:07;;;;;;;;;;;18.10;65.60;;;;;;10262892;28;93451;-43
2023/12/23 08:26:09;;;;;;;;;;;17.90;65.60;;;;;;10271115;28;96557;-42
2023/12/23 08:31:11;;;;;;;;;;;17.90;65.90;;;;;;10261711;28;94831;-42
2023/12/23 08:36:13;;;;;;;;;;;17.80;66.00;;;;;;10274713;28;93452;-43
2023/12/23 08:41:15;;;;;;;;;;;17.80;66.10;;;;;;10269262;28;94507;-40
2023/12/23 08:46:17;;;;;;;;;;;17.80;66.10;;;;;;10274243;28;94373;-41
2023/12/23 08:51:19;;;;;;;;;;;17.80;66.20;;;;;;10278423;28;94712;-40
2023/12/23 08:56:20;;;;;;;;;;;17.90;66.50;;;;;;10271380;28;93821;-40
2023/12/23 09:01:22;;;;;;;;;;;18.00;66.80;;;;;;10280268;28;93907;-41
2023/12/23 09:06:24;;;;;;;;;;;18.10;66.80;;;;;;10259788;28;94505;-40
2023/12/23 09:11:26;;;;;;;;;;;18.10;66.50;;;;;;10272047;28;94141;-41
2023/12/23 09:16:28;;;;;;;;;;;18.20;66.30;;;;;;10260858;28;96251;-40
2023/12/23 09:21:30;;;;;;;;;;;18.30;66.50;;;;;;10272228;28;94145;-41
2023/12/23 09:26:32;;;;;;;;;;;18.30;66.50;;;;;;10278912;28;93556;-42
2023/12/23 09:31:34;;;;;;;;;;;18.40;66.60;;;;;;10280766;28;92936;-42
2023/12/23 09:36:36;;;;;;;;;;;18.40;66.60;;;;;;10264623;28;93405;-44
2023/12/23 09:41:39;;;;;;;;;;;18.40;66.70;;;;;;10279758;28;94455;-43
2023/12/23 09:46:40;;;;;;;;;;;18.40;67.20;;;;;;10274449;28;93401;-44
2023/12/23 09:51:43;;;;;;;;;;;18.30;67.50;;;;;;10273943;28;93226;-42
2023/12/23 09:56:47;;;;;;;;;;;18.40;67.80;;;;;;10265766;28;94174;-41
2023/12/23 10:01:48;;;;;;;;;;;18.40;67.90;;;;;;10253967;28;94351;-44
2023/12/23 10:06:51;;;;;;;;;;;18.50;67.90;;;;;;10273466;28;96206;-43
2023/12/23 10:11:53;;;;;;;;;;;18.70;67.70;;;;;;10274194;28;94494;-41
2023/12/23 10:16:55;;;;;;;;;;;18.80;68.20;;;;;;10249887;28;94492;-42
2023/12/23 10:21:56;;;;;;;;;;;18.90;68.30;;;;;;10272199;28;93692;-44
2023/12/23 10:26:59;;;;;;;;;;;18.90;68.20;;;;;;10283588;28;94364;-42
2023/12/23 10:32:02;;;;;;;;;;;18.90;68.50;;;;;;10275439;28;94264;-40
2023/12/23 10:37:04;;;;;;;;;;;18.90;68.60;;;;;;10263302;28;95048;-41
2023/12/23 10:42:08;;;;;;;;;;;18.90;68.90;;;;;;10283710;28;93987;-40
2023/12/23 10:47:10;;;;;;;;;;;18.80;69.10;;;;;;10272197;28;95178;-41
2023/12/23 10:52:13;;;;;;;;;;;18.80;69.30;;;;;;10277091;28;93922;-43
2023/12/23 10:57:15;;;;;;;;;;;18.80;69.90;;;;;;10274363;28;96797;-41
2023/12/23 11:02:19;;;;;;;;;;;18.70;72.00;;;;;;10267900;28;93404;-41
2023/12/23 11:07:24;;;;;;;;;;;18.90;71.60;;;;;;10285965;28;93801;-41
2023/12/23 11:12:25;;;;;;;;;;;18.90;71.20;;;;;;10279933;28;94260;-40
2023/12/23 11:17:28;;;;;;;;;;;19.10;70.70;;;;;;10298531;28;94372;-41
2023/12/23 11:22:36;;;;;;;;;;;19.20;70.20;;;;;;10278901;28;93266;-41
2023/12/23 11:27:38;;;;;;;;;;;19.40;70.00;;;;;;10266864;28;93421;-42
2023/12/23 11:32:43;;;;;;;;;;;19.70;69.90;;;;;;10284299;28;92977;-42
2023/12/23 11:38:01;;;;;;;;;;;19.90;70.50;;;;;;10281042;28;94532;-41
2023/12/23 11:43:04;;;;;;;;;;;20.20;71.00;;;;;;10278912;28;93709;-42
2023/12/23 11:48:08;;;;;;;;;;;20.50;71.60;;;;;;10269500;28;96608;-42
2023/12/23 11:53:10;;;;;;;;;;;20.70;70.10;;;;;;10286673;28;94276;-44
2023/12/23 11:58:12;;;;;;;;;;;20.80;70.00;;;;;;10261712;28;93520;-41
2023/12/23 12:03:14;;;;;;;;;;;20.90;70.20;;;;;;10265878;28;93439;-45
2023/12/23 12:08:16;;;;;;;;;;;20.80;70.20;;;;;;10291996;28;95757;-44
2023/12/23 12:13:18;;;;;;;;;;;20.80;70.40;;;;;;10275520;28;94587;-45
2023/12/23 12:18:20;;;;;;;;;;;20.60;70.20;;;;;;10278029;28;94430;-41
2023/12/23 12:23:22;;;;;;;;;;;20.50;70.60;;;;;;10263061;28;93785;-39
2023/12/23 12:28:24;;;;;;;;;;;20.40;71.30;;;;;;10279845;28;93485;-40
2023/12/23 12:33:26;;;;;;;;;;;20.30;72.10;;;;;;10274619;28;93880;-46
2023/12/23 12:38:28;;;;;;;;;;;20.30;73.30;;;;;;10280565;28;97446;-42
2023/12/23 12:43:31;;;;;;;;;;;20.30;73.70;;;;;;10271088;28;93656;-40
2023/12/23 12:48:33;;;;;;;;;;;20.20;74.50;;;;;;10255968;28;93428;-40
2023/12/23 12:53:35;;;;;;;;;;;20.20;74.00;;;;;;10274901;28;93659;-40
2023/12/23 12:58:39;;;;;;;;;;;20.20;73.50;;;;;;10262029;28;94833;-44
2023/12/23 13:03:40;;;;;;;;;;;20.10;73.20;;;;;;10277723;28;93986;-41
2023/12/23 13:08:42;;;;;;;;;;;20.10;73.30;;;;;;10286794;28;94994;-40
2023/12/23 13:13:44;;;;;;;;;;;20.20;73.90;;;;;;10257338;28;93749;-42
2023/12/23 13:18:47;;;;;;;;;;;20.10;73.30;;;;;;10266296;28;93549;-41
2023/12/23 13:24:00;;;;;;;;;;;20.00;76.30;;;;;;10279647;28;94243;-41
2023/12/23 13:29:02;;;;;;;;;;;20.00;73.90;;;;;;10262126;28;96883;-42
2023/12/23 13:34:04;;;;;;;;;;;20.00;73.90;;;;;;10274971;28;94346;-41
2023/12/23 13:39:07;;;;;;;;;;;20.00;74.20;;;;;;10271242;28;94256;-42
2023/12/23 13:44:09;;;;;;;;;;;19.90;76.30;;;;;;10266408;28;93654;-43
2023/12/23 13:49:11;;;;;;;;;;;20.10;75.00;;;;;;10267592;28;93560;-41
2023/12/23 13:54:13;;;;;;;;;;;20.10;74.30;;;;;;10281684;28;93801;-44
2023/12/23 13:59:16;;;;;;;;;;;20.10;74.00;;;;;;10278575;28;93890;-43
2023/12/23 14:04:19;;;;;;;;;;;20.00;75.70;;;;;;10248672;28;94570;-44
2023/12/23 14:09:21;;;;;;;;;;;20.00;75.10;;;;;;10260658;28;94431;-45
2023/12/23 14:14:23;;;;;;;;;;;19.90;75.20;;;;;;10287113;28;94092;-42
2023/12/23 14:19:25;;;;;;;;;;;19.80;75.30;;;;;;10276370;28;96875;-41
2023/12/23 14:24:28;;;;;;;;;;;19.80;75.70;;;;;;10278284;28;93761;-44
2023/12/23 14:29:30;;;;;;;;;;;19.70;76.00;;;;;;10284107;28;94758;-44
2023/12/23 14:34:32;;;;;;;;;;;19.80;75.60;;;;;;10263324;28;93489;-44
2023/12/23 14:39:34;;;;;;;;;;;19.80;75.70;;;;;;10290914;28;94042;-43
2023/12/23 14:44:36;;;;;;;;;;;19.90;75.30;;;;;;10278338;28;94598;-42
2023/12/23 14:49:37;;;;;;;;;;;19.80;75.70;;;;;;10272315;28;93803;-43
2023/12/23 14:54:40;;;;;;;;;;;19.80;76.30;;;;;;10278451;28;97083;-46
2023/12/23 14:59:41;;;;;;;;;;;19.80;76.50;;;;;;10281894;28;93714;-41
2023/12/23 15:04:43;;;;;;;;;;;19.70;76.50;;;;;;10282761;28;93510;-43
2023/12/23 15:09:45;;;;;;;;;;;19.70;76.70;;;;;;10272955;28;96968;-42
2023/12/23 15:14:50;;;;;;;;;;;19.70;76.90;;;;;;10265263;28;94538;-43
2023/12/23 15:19:52;;;;;;;;;;;19.60;76.70;;;;;;10280197;28;95066;-40
2023/12/23 15:24:54;;;;;;;;;;;19.60;76.60;;;;;;10281471;28;94040;-43
2023/12/23 15:29:57;;;;;;;;;;;19.60;76.50;;;;;;10270683;28;93444;-44
2023/12/23 15:34:59;;;;;;;;;;;19.50;76.50;;;;;;10282472;28;93405;-42
2023/12/23 15:40:01;;;;;;;;;;;19.50;76.90;;;;;;10263782;28;94496;-42
2023/12/23 15:45:03;;;;;;;;;;;19.50;77.00;;;;;;10302453;28;92845;-40
2023/12/23 15:50:04;;;;;;;;;;;19.50;77.10;;;;;;10275924;28;94401;-42
2023/12/23 15:55:06;;;;;;;;;;;19.50;77.00;;;;;;10290068;28;94608;-42
2023/12/23 16:00:08;;;;;;;;;;;19.50;77.10;;;;;;10287249;28;96705;-46
2023/12/23 16:05:10;;;;;;;;;;;19.50;76.90;;;;;;10284234;28;93482;-41
2023/12/23 16:10:12;;;;;;;;;;;19.50;76.70;;;;;;10274827;28;94906;-44
2023/12/23 16:15:14;;;;;;;;;;;19.50;76.30;;;;;;10259629;28;94019;-43
2023/12/23 16:20:16;;;;;;;;;;;19.50;76.20;;;;;;10284858;28;94838;-44
2023/12/23 16:25:18;;;;;;;;;;;19.50;75.80;;;;;;10277882;28;94441;-41
2023/12/23 16:30:20;;;;;;;;;;;19.50;75.20;;;;;;10264301;28;94153;-43
2023/12/23 16:35:22;;;;;;;;;;;19.40;74.80;;;;;;10269910;28;92693;-43
2023/12/23 16:40:24;;;;;;;;;;;19.40;75.10;;;;;;10259944;28;94560;-40
2023/12/23 16:45:26;;;;;;;;;;;19.40;76.10;;;;;;10252961;28;93383;-41
2023/12/23 16:50:27;;;;;;;;;;;19.60;79.10;;;;;;10272503;28;96912;-43
2023/12/23 16:55:29;;;;;;;;;;;19.70;82.40;;;;;;10274292;28;94597;-41
2023/12/23 17:00:31;;;;;;;;;;;20.20;83.20;;;;;;10282068;28;94538;-44
2023/12/23 17:05:33;;;;;;;;;;;20.40;78.60;;;;;;10276569;28;93848;-41
2023/12/23 17:10:35;;;;;;;;;;;20.30;77.20;;;;;;10275902;28;94642;-41
2023/12/23 17:15:37;;;;;;;;;;;20.20;77.20;;;;;;10287769;28;94457;-42
2023/12/23 17:20:39;;;;;;;;;;;20.10;77.00;;;;;;10296771;28;93546;-40
2023/12/23 17:25:41;;;;;;;;;;;20.00;76.80;;;;;;10282220;28;92903;-41
2023/12/23 17:30:43;;;;;;;;;;;19.90;76.30;;;;;;10260407;28;93422;-40
2023/12/23 17:35:45;;;;;;;;;;;19.90;76.50;;;;;;10277137;28;93280;-40
2023/12/23 17:40:49;;;;;;;;;;;19.80;76.40;;;;;;10263228;28;97194;-41
2023/12/23 17:45:51;;;;;;;;;;;19.80;76.70;;;;;;10289907;28;94129;-42
2023/12/23 17:50:55;;;;;;;;;;;19.80;76.80;;;;;;10269242;28;93477;-39
2023/12/23 17:55:57;;;;;;;;;;;19.80;77.40;;;;;;10258345;28;94233;-42
2023/12/23 18:00:59;;;;;;;;;;;19.70;76.60;;;;;;10267819;28;94446;-42
2023/12/23 18:06:01;;;;;;;;;;;19.70;76.50;;;;;;10265051;28;93896;-44
2023/12/23 18:11:03;;;;;;;;;;;19.60;76.20;;;;;;10266452;28;94991;-42
2023/12/23 18:16:05;;;;;;;;;;;19.60;75.40;;;;;;10275967;28;92495;-44
2023/12/23 18:21:07;;;;;;;;;;;19.50;75.30;;;;;;10264855;28;94546;-45
2023/12/23 18:26:09;;;;;;;;;;;19.50;75.40;;;;;;10264365;28;93374;-43
2023/12/23 18:31:10;;;;;;;;;;;19.40;75.20;;;;;;10263443;28;97522;-42
2023/12/23 18:36:12;;;;;;;;;;;19.40;75.20;;;;;;10260987;28;94461;-42
2023/12/23 18:41:14;;;;;;;;;;;19.40;75.20;;;;;;10274364;28;93579;-41
2023/12/23 18:46:16;;;;;;;;;;;19.30;75.20;;;;;;10281373;28;94747;-41
2023/12/23 18:51:18;;;;;;;;;;;19.30;75.10;;;;;;10274030;28;94339;-42
2023/12/23 18:56:20;;;;;;;;;;;19.30;75.10;;;;;;10267138;28;94463;-41
2023/12/23 19:01:22;;;;;;;;;;;19.20;75.10;;;;;;10267645;28;94808;-44
2023/12/23 19:06:24;;;;;;;;;;;19.20;75.10;;;;;;10273925;28;91915;-42
2023/12/23 19:11:25;;;;;;;;;;;19.20;75.00;;;;;;10267599;28;93475;-42
2023/12/23 19:16:27;;;;;;;;;;;19.10;75.00;;;;;;10262391;28;94326;-42
2023/12/23 19:21:29;;;;;;;;;;;19.10;74.80;;;;;;10263496;28;97242;-41
2023/12/23 19:26:31;;;;;;;;;;;19.10;74.80;;;;;;10255341;28;93442;-42
2023/12/23 19:31:36;;;;;;;;;;;19.10;74.50;;;;;;10278135;28;93497;-43
2023/12/23 19:36:38;;;;;;;;;;;19.10;74.40;;;;;;10263800;28;93458;-45
2023/12/23 19:41:40;;;;;;;;;;;19.00;74.30;;;;;;10262558;28;93425;-44
2023/12/23 19:46:42;;;;;;;;;;;19.00;74.10;;;;;;10269521;28;94266;-45
2023/12/23 19:51:43;;;;;;;;;;;19.00;74.00;;;;;;10266114;28;94652;-42
2023/12/23 19:56:46;;;;;;;;;;;19.00;73.90;;;;;;10267949;28;93948;-42
2023/12/23 20:01:48;;;;;;;;;;;19.00;73.40;;;;;;10253477;28;93477;-42
2023/12/23 20:06:50;;;;;;;;;;;19.00;74.70;;;;;;10279435;28;93738;-45
2023/12/23 20:11:52;;;;;;;;;;;19.10;74.20;;;;;;10275881;28;96047;-41
2023/12/23 20:16:54;;;;;;;;;;;19.20;74.40;;;;;;10263784;28;94425;-45
2023/12/23 20:21:56;;;;;;;;;;;19.20;73.70;;;;;;10258985;28;94143;-43
2023/12/23 20:26:58;;;;;;;;;;;19.10;73.80;;;;;;10280740;28;93499;-48
2023/12/23 20:32:04;;;;;;;;;;;19.20;73.80;;;;;;10252871;28;93977;-44
2023/12/23 20:37:08;;;;;;;;;;;19.10;74.10;;;;;;10272917;28;93585;-45
2023/12/23 20:42:12;;;;;;;;;;;19.10;74.10;;;;;;10276078;28;94112;-43
2023/12/23 20:47:14;;;;;;;;;;;19.10;74.00;;;;;;10261889;28;92514;-45
2023/12/23 20:52:16;;;;;;;;;;;19.10;73.90;;;;;;10269931;28;95041;-44
2023/12/23 20:57:18;;;;;;;;;;;19.10;74.00;;;;;;10265003;28;94548;-42
2023/12/23 21:02:19;;;;;;;;;;;19.10;74.00;;;;;;10261677;28;97459;-43
2023/12/23 21:07:21;;;;;;;;;;;19.10;73.50;;;;;;10256134;28;93973;-44
2023/12/23 21:12:25;;;;;;;;;;;19.10;73.50;;;;;;10259451;28;94929;-45
2023/12/23 21:17:27;;;;;;;;;;;19.00;73.20;;;;;;10255734;28;93202;-44
2023/12/23 21:22:29;;;;;;;;;;;19.00;73.20;;;;;;10271981;28;94441;-43
2023/12/23 21:27:31;;;;;;;;;;;19.00;73.20;;;;;;10276597;28;94428;-43
2023/12/23 21:32:33;;;;;;;;;;;18.90;73.10;;;;;;10279182;28;94105;-57
2023/12/23 21:37:35;;;;;;;;;;;18.90;73.00;;;;;;10268056;28;92807;-44
2023/12/23 21:42:37;;;;;;;;;;;18.80;73.20;;;;;;10260132;28;92784;-42
2023/12/23 21:47:43;;;;;;;;;;;18.70;73.10;;;;;;10261473;28;94367;-43
2023/12/23 21:52:45;;;;;;;;;;;18.70;73.10;;;;;;10265560;28;96969;-48
2023/12/23 21:57:47;;;;;;;;;;;18.70;73.10;;;;;;10262101;28;93812;-44
2023/12/23 22:02:49;;;;;;;;;;;18.60;73.00;;;;;;10282044;28;93446;-44
2023/12/23 22:07:52;;;;;;;;;;;18.60;73.10;;;;;;10261260;28;93546;-44
2023/12/23 22:12:54;;;;;;;;;;;18.60;73.10;;;;;;10268091;28;94597;-43
2023/12/23 22:17:55;;;;;;;;;;;18.50;73.00;;;;;;10273569;28;94263;-43
2023/12/23 22:22:57;;;;;;;;;;;18.50;72.90;;;;;;10263937;28;94682;-42
2023/12/23 22:27:59;;;;;;;;;;;18.40;73.00;;;;;;10275007;28;92185;-43
2023/12/23 22:33:01;;;;;;;;;;;18.40;72.90;;;;;;10272551;28;93885;-45
2023/12/23 22:38:03;;;;;;;;;;;18.40;73.00;;;;;;10266708;28;93562;-45
2023/12/23 22:43:05;;;;;;;;;;;18.40;73.00;;;;;;10260116;28;96021;-42
2023/12/23 22:48:07;;;;;;;;;;;18.30;72.90;;;;;;10282807;28;93453;-48
2023/12/23 22:53:09;;;;;;;;;;;18.30;72.60;;;;;;10275132;28;93530;-44
2023/12/23 22:58:11;;;;;;;;;;;18.20;72.70;;;;;;10277457;28;93726;-48
2023/12/23 23:03:13;;;;;;;;;;;18.20;72.60;;;;;;10271494;28;93440;-43
2023/12/23 23:08:15;;;;;;;;;;;18.20;72.60;;;;;;10263396;28;94574;-44
2023/12/23 23:13:17;;;;;;;;;;;18.20;72.20;;;;;;10266980;28;94507;-46
2023/12/23 23:18:19;;;;;;;;;;;18.20;71.60;;;;;;10283251;28;92873;-43
2023/12/23 23:23:21;;;;;;;;;;;18.10;71.20;;;;;;10276013;28;93394;-43
2023/12/23 23:28:23;;;;;;;;;;;18.10;70.80;;;;;;10278928;28;94011;-42
2023/12/23 23:33:25;;;;;;;;;;;18.10;70.40;;;;;;10274948;28;96829;-44
2023/12/23 23:38:27;;;;;;;;;;;18.10;70.00;;;;;;10268953;28;94699;-44
2023/12/23 23:43:29;;;;;;;;;;;18.10;69.50;;;;;;10272689;28;92811;-45
2023/12/23 23:48:31;;;;;;;;;;;18.10;69.10;;;;;;10284634;28;93879;-43
2023/12/23 23:53:33;;;;;;;;;;;18.10;68.90;;;;;;10283852;28;93367;-42
2023/12/23 23:58:38;;;;;;;;;;;18.10;68.80;;;;;;10284689;28;94408;-42
